<?xml version="1.0" encoding="UTF-8" standalone="no" ?>
<gpx xmlns="http://www.topografix.com/GPX/1/1" xmlns:xsi="http://www.w3.org/2001/XMLSchema-instance" xsi:schemaLocation="http://www.topografix.com/GPX/1/1 http://www.topografix.com/GPX/1/1/gpx.xsd" version="1.1" creator="VisuGPX - https://www.visugpx.com">
  <metadata>
    <name>Péronne, préparation, marais</name>
    <desc><![CDATA[Péronne, préparation, marais.]]></desc>
  </metadata>
  <trk>
    <name><![CDATA[10-JAN-14 16:32:16]]></name>
    <trkseg>
      <trkpt lat="49.94983" lon="2.84778">
        <ele>-26.3</ele>
        <time>2014-01-10T10:29:34Z</time>
      </trkpt>
      <trkpt lat="49.94987" lon="2.84737">
        <ele>45.8</ele>
        <time>2014-01-10T10:39:53Z</time>
      </trkpt>
      <trkpt lat="49.94998" lon="2.84735">
        <ele>46.28</ele>
        <time>2014-01-10T10:40:04Z</time>
      </trkpt>
      <trkpt lat="49.95003" lon="2.84736">
        <ele>46.76</ele>
        <time>2014-01-10T10:40:08Z</time>
      </trkpt>
      <trkpt lat="49.95021" lon="2.84747">
        <ele>46.28</ele>
        <time>2014-01-10T10:40:19Z</time>
      </trkpt>
      <trkpt lat="49.95041" lon="2.8476">
        <ele>45.8</ele>
        <time>2014-01-10T10:40:35Z</time>
      </trkpt>
      <trkpt lat="49.95052" lon="2.84768">
        <ele>45.8</ele>
        <time>2014-01-10T10:40:42Z</time>
      </trkpt>
      <trkpt lat="49.95067" lon="2.84781">
        <ele>45.32</ele>
        <time>2014-01-10T10:40:53Z</time>
      </trkpt>
      <trkpt lat="49.95095" lon="2.84805">
        <ele>44.84</ele>
        <time>2014-01-10T10:41:12Z</time>
      </trkpt>
      <trkpt lat="49.95104" lon="2.84812">
        <ele>44.84</ele>
        <time>2014-01-10T10:41:32Z</time>
      </trkpt>
      <trkpt lat="49.95139" lon="2.84838">
        <ele>46.28</ele>
        <time>2014-01-10T10:42:01Z</time>
      </trkpt>
      <trkpt lat="49.95144" lon="2.84844">
        <ele>45.8</ele>
        <time>2014-01-10T10:42:06Z</time>
      </trkpt>
      <trkpt lat="49.95151" lon="2.84852">
        <ele>45.8</ele>
        <time>2014-01-10T10:42:49Z</time>
      </trkpt>
      <trkpt lat="49.95182" lon="2.8491">
        <ele>45.32</ele>
        <time>2014-01-10T10:44:28Z</time>
      </trkpt>
      <trkpt lat="49.95185" lon="2.84913">
        <ele>45.32</ele>
        <time>2014-01-10T10:44:32Z</time>
      </trkpt>
      <trkpt lat="49.95191" lon="2.84922">
        <ele>45.32</ele>
        <time>2014-01-10T10:44:39Z</time>
      </trkpt>
      <trkpt lat="49.95236" lon="2.84973">
        <ele>44.36</ele>
        <time>2014-01-10T10:45:17Z</time>
      </trkpt>
      <trkpt lat="49.95301" lon="2.85051">
        <ele>44.84</ele>
        <time>2014-01-10T10:46:16Z</time>
      </trkpt>
      <trkpt lat="49.95318" lon="2.85065">
        <ele>44.84</ele>
        <time>2014-01-10T10:46:31Z</time>
      </trkpt>
      <trkpt lat="49.95325" lon="2.85014">
        <ele>44.84</ele>
        <time>2014-01-10T10:46:57Z</time>
      </trkpt>
      <trkpt lat="49.95341" lon="2.84868">
        <ele>44.36</ele>
        <time>2014-01-10T10:48:30Z</time>
      </trkpt>
      <trkpt lat="49.95353" lon="2.84765">
        <ele>42.92</ele>
        <time>2014-01-10T10:49:37Z</time>
      </trkpt>
      <trkpt lat="49.95364" lon="2.84657">
        <ele>43.4</ele>
        <time>2014-01-10T10:51:12Z</time>
      </trkpt>
      <trkpt lat="49.95368" lon="2.84583">
        <ele>42.92</ele>
        <time>2014-01-10T10:52:02Z</time>
      </trkpt>
      <trkpt lat="49.95376" lon="2.84543">
        <ele>42.92</ele>
        <time>2014-01-10T10:52:39Z</time>
      </trkpt>
      <trkpt lat="49.95383" lon="2.84525">
        <ele>42.92</ele>
        <time>2014-01-10T10:52:56Z</time>
      </trkpt>
      <trkpt lat="49.95416" lon="2.84486">
        <ele>43.4</ele>
        <time>2014-01-10T10:53:23Z</time>
      </trkpt>
      <trkpt lat="49.95426" lon="2.84468">
        <ele>43.4</ele>
        <time>2014-01-10T10:53:25Z</time>
      </trkpt>
      <trkpt lat="49.95433" lon="2.84437">
        <ele>43.88</ele>
        <time>2014-01-10T10:54:01Z</time>
      </trkpt>
      <trkpt lat="49.9544" lon="2.84351">
        <ele>43.4</ele>
        <time>2014-01-10T10:55:23Z</time>
      </trkpt>
      <trkpt lat="49.95451" lon="2.84269">
        <ele>43.4</ele>
        <time>2014-01-10T10:55:43Z</time>
      </trkpt>
      <trkpt lat="49.95454" lon="2.84114">
        <ele>53.4921875</ele>
        <time>2014-01-10T10:55:53Z</time>
      </trkpt>
      <trkpt lat="49.95456" lon="2.84034">
        <ele>42.44</ele>
        <time>2014-01-10T10:57:48Z</time>
      </trkpt>
      <trkpt lat="49.95433" lon="2.83934">
        <ele>41.47</ele>
        <time>2014-01-10T10:58:41Z</time>
      </trkpt>
      <trkpt lat="49.95428" lon="2.83898">
        <ele>49.578125</ele>
        <time>2014-01-10T10:58:42Z</time>
      </trkpt>
      <trkpt lat="49.95416" lon="2.83849">
        <ele>48.40625</ele>
        <time>2014-01-10T10:58:43Z</time>
      </trkpt>
      <trkpt lat="49.95396" lon="2.8379">
        <ele>48.12109375</ele>
        <time>2014-01-10T10:58:41Z</time>
      </trkpt>
      <trkpt lat="49.95359" lon="2.8364">
        <ele>41.47</ele>
        <time>2014-01-10T11:01:23Z</time>
      </trkpt>
      <trkpt lat="49.95331" lon="2.83575">
        <ele>48.15625</ele>
        <time>2014-01-10T11:02:23Z</time>
      </trkpt>
      <trkpt lat="49.95299" lon="2.83513">
        <ele>41.47</ele>
        <time>2014-01-10T11:02:33Z</time>
      </trkpt>
      <trkpt lat="49.95296" lon="2.835">
        <ele>40.99</ele>
        <time>2014-01-10T11:02:38Z</time>
      </trkpt>
      <trkpt lat="49.953" lon="2.8349">
        <ele>42.44</ele>
        <time>2014-01-10T11:02:42Z</time>
      </trkpt>
      <trkpt lat="49.95365" lon="2.83407">
        <ele>51.57</ele>
        <time>2014-01-10T11:03:59Z</time>
      </trkpt>
      <trkpt lat="49.95365" lon="2.83407">
        <ele>51.57</ele>
        <time>2014-01-10T11:04:13Z</time>
      </trkpt>
      <trkpt lat="49.95368" lon="2.83402">
        <ele>51.09</ele>
        <time>2014-01-10T11:04:22Z</time>
      </trkpt>
      <trkpt lat="49.95347" lon="2.83332">
        <ele>51.09</ele>
        <time>2014-01-10T11:05:34Z</time>
      </trkpt>
      <trkpt lat="49.95326" lon="2.83258">
        <ele>56.30859375</ele>
        <time>2014-01-10T11:05:35Z</time>
      </trkpt>
      <trkpt lat="49.95332" lon="2.83252">
        <ele>49.65</ele>
        <time>2014-01-10T11:06:20Z</time>
      </trkpt>
      <trkpt lat="49.95395" lon="2.83089">
        <ele>50.13</ele>
        <time>2014-01-10T11:08:32Z</time>
      </trkpt>
      <trkpt lat="49.95438" lon="2.82978">
        <ele>52.05</ele>
        <time>2014-01-10T11:09:38Z</time>
      </trkpt>
      <trkpt lat="49.95477" lon="2.82866">
        <ele>52.05</ele>
        <time>2014-01-10T11:10:43Z</time>
      </trkpt>
      <trkpt lat="49.95504" lon="2.82789">
        <ele>52.53</ele>
        <time>2014-01-10T11:11:26Z</time>
      </trkpt>
      <trkpt lat="49.95563" lon="2.82666">
        <ele>51.09</ele>
        <time>2014-01-10T11:12:42Z</time>
      </trkpt>
      <trkpt lat="49.95617" lon="2.8259">
        <ele>50.61</ele>
        <time>2014-01-10T11:13:32Z</time>
      </trkpt>
      <trkpt lat="49.95691" lon="2.82491">
        <ele>51.57</ele>
        <time>2014-01-10T11:14:47Z</time>
      </trkpt>
      <trkpt lat="49.95719" lon="2.82458">
        <ele>52.05</ele>
        <time>2014-01-10T11:15:16Z</time>
      </trkpt>
      <trkpt lat="49.95734" lon="2.82445">
        <ele>52.05</ele>
        <time>2014-01-10T11:15:26Z</time>
      </trkpt>
      <trkpt lat="49.95782" lon="2.82396">
        <ele>53.01</ele>
        <time>2014-01-10T11:16:31Z</time>
      </trkpt>
      <trkpt lat="49.95869" lon="2.82298">
        <ele>52.05</ele>
        <time>2014-01-10T11:17:54Z</time>
      </trkpt>
      <trkpt lat="49.9593" lon="2.82234">
        <ele>51.57</ele>
        <time>2014-01-10T11:18:53Z</time>
      </trkpt>
      <trkpt lat="49.95986" lon="2.82188">
        <ele>53.49</ele>
        <time>2014-01-10T11:19:47Z</time>
      </trkpt>
      <trkpt lat="49.96001" lon="2.82175">
        <ele>53.01</ele>
        <time>2014-01-10T11:19:58Z</time>
      </trkpt>
      <trkpt lat="49.96008" lon="2.8216">
        <ele>53.01</ele>
        <time>2014-01-10T11:20:07Z</time>
      </trkpt>
      <trkpt lat="49.96028" lon="2.82134">
        <ele>52.05</ele>
        <time>2014-01-10T11:20:27Z</time>
      </trkpt>
      <trkpt lat="49.96056" lon="2.82095">
        <ele>51.57</ele>
        <time>2014-01-10T11:20:57Z</time>
      </trkpt>
      <trkpt lat="49.96076" lon="2.82053">
        <ele>49.16</ele>
        <time>2014-01-10T11:21:30Z</time>
      </trkpt>
      <trkpt lat="49.96086" lon="2.82021">
        <ele>48.68</ele>
        <time>2014-01-10T11:21:34Z</time>
      </trkpt>
      <trkpt lat="49.96087" lon="2.81995">
        <ele>47.24</ele>
        <time>2014-01-10T11:22:01Z</time>
      </trkpt>
      <trkpt lat="49.96075" lon="2.81932">
        <ele>43.88</ele>
        <time>2014-01-10T11:22:42Z</time>
      </trkpt>
      <trkpt lat="49.96084" lon="2.81911">
        <ele>44.36</ele>
        <time>2014-01-10T11:22:51Z</time>
      </trkpt>
      <trkpt lat="49.96094" lon="2.81903">
        <ele>43.4</ele>
        <time>2014-01-10T11:22:58Z</time>
      </trkpt>
      <trkpt lat="49.96144" lon="2.81866">
        <ele>42.44</ele>
        <time>2014-01-10T11:23:41Z</time>
      </trkpt>
      <trkpt lat="49.9617" lon="2.81841">
        <ele>41.95</ele>
        <time>2014-01-10T11:24:17Z</time>
      </trkpt>
      <trkpt lat="49.96182" lon="2.81823">
        <ele>41.95</ele>
        <time>2014-01-10T11:24:27Z</time>
      </trkpt>
      <trkpt lat="49.96212" lon="2.81763">
        <ele>41.47</ele>
        <time>2014-01-10T11:25:09Z</time>
      </trkpt>
      <trkpt lat="49.96228" lon="2.81743">
        <ele>41.95</ele>
        <time>2014-01-10T11:25:20Z</time>
      </trkpt>
      <trkpt lat="49.96247" lon="2.81734">
        <ele>41.47</ele>
        <time>2014-01-10T11:25:44Z</time>
      </trkpt>
      <trkpt lat="49.96295" lon="2.81721">
        <ele>41.95</ele>
        <time>2014-01-10T11:26:22Z</time>
      </trkpt>
      <trkpt lat="49.9631" lon="2.8171">
        <ele>50.046875</ele>
        <time>2014-01-10T11:26:23Z</time>
      </trkpt>
      <trkpt lat="49.96328" lon="2.81695">
        <ele>43.4</ele>
        <time>2014-01-10T11:26:52Z</time>
      </trkpt>
      <trkpt lat="49.96362" lon="2.81659">
        <ele>46.28</ele>
        <time>2014-01-10T11:27:24Z</time>
      </trkpt>
      <trkpt lat="49.96403" lon="2.81584">
        <ele>49.65</ele>
        <time>2014-01-10T11:28:28Z</time>
      </trkpt>
      <trkpt lat="49.96421" lon="2.81544">
        <ele>48.2</ele>
        <time>2014-01-10T11:28:55Z</time>
      </trkpt>
      <trkpt lat="49.96415" lon="2.81534">
        <ele>47.24</ele>
        <time>2014-01-10T11:29:03Z</time>
      </trkpt>
      <trkpt lat="49.96401" lon="2.81512">
        <ele>45.32</ele>
        <time>2014-01-10T11:29:22Z</time>
      </trkpt>
      <trkpt lat="49.96395" lon="2.81504">
        <ele>44.84</ele>
        <time>2014-01-10T11:29:28Z</time>
      </trkpt>
      <trkpt lat="49.96384" lon="2.81486">
        <ele>42.44</ele>
        <time>2014-01-10T11:29:41Z</time>
      </trkpt>
      <trkpt lat="49.9637" lon="2.81471">
        <ele>40.99</ele>
        <time>2014-01-10T11:29:54Z</time>
      </trkpt>
      <trkpt lat="49.96361" lon="2.81464">
        <ele>40.99</ele>
        <time>2014-01-10T11:30:02Z</time>
      </trkpt>
      <trkpt lat="49.96348" lon="2.81455">
        <ele>40.51</ele>
        <time>2014-01-10T11:30:13Z</time>
      </trkpt>
      <trkpt lat="49.9634" lon="2.81447">
        <ele>42.44</ele>
        <time>2014-01-10T11:31:34Z</time>
      </trkpt>
      <trkpt lat="49.9634" lon="2.81447">
        <ele>41.47</ele>
        <time>2014-01-10T11:31:35Z</time>
      </trkpt>
      <trkpt lat="49.9634" lon="2.81447">
        <ele>37.63</ele>
        <time>2014-01-10T11:31:36Z</time>
      </trkpt>
      <trkpt lat="49.9634" lon="2.81448">
        <ele>41.95</ele>
        <time>2014-01-10T11:31:37Z</time>
      </trkpt>
      <trkpt lat="49.9634" lon="2.81447">
        <ele>40.03</ele>
        <time>2014-01-10T11:32:05Z</time>
      </trkpt>
      <trkpt lat="49.96341" lon="2.81444">
        <ele>39.55</ele>
        <time>2014-01-10T11:32:10Z</time>
      </trkpt>
      <trkpt lat="49.96345" lon="2.81448">
        <ele>40.03</ele>
        <time>2014-01-10T11:32:16Z</time>
      </trkpt>
      <trkpt lat="49.96358" lon="2.8146">
        <ele>40.51</ele>
        <time>2014-01-10T11:32:48Z</time>
      </trkpt>
      <trkpt lat="49.96384" lon="2.81486">
        <ele>41.95</ele>
        <time>2014-01-10T11:33:15Z</time>
      </trkpt>
      <trkpt lat="49.96393" lon="2.81497">
        <ele>42.92</ele>
        <time>2014-01-10T11:33:26Z</time>
      </trkpt>
      <trkpt lat="49.96426" lon="2.81538">
        <ele>46.76</ele>
        <time>2014-01-10T11:34:14Z</time>
      </trkpt>
      <trkpt lat="49.9645" lon="2.81481">
        <ele>44.84</ele>
        <time>2014-01-10T11:34:59Z</time>
      </trkpt>
      <trkpt lat="49.96488" lon="2.81364">
        <ele>43.4</ele>
        <time>2014-01-10T11:36:07Z</time>
      </trkpt>
      <trkpt lat="49.96514" lon="2.81278">
        <ele>43.4</ele>
        <time>2014-01-10T11:36:52Z</time>
      </trkpt>
      <trkpt lat="49.9653" lon="2.81234">
        <ele>50.92578125</ele>
        <time>2014-01-10T11:36:53Z</time>
      </trkpt>
      <trkpt lat="49.96563" lon="2.81173">
        <ele>45.8</ele>
        <time>2014-01-10T11:37:59Z</time>
      </trkpt>
      <trkpt lat="49.96576" lon="2.81128">
        <ele>47.24</ele>
        <time>2014-01-10T11:38:30Z</time>
      </trkpt>
      <trkpt lat="49.96579" lon="2.81118">
        <ele>55.515625</ele>
        <time>2014-01-10T11:38:31Z</time>
      </trkpt>
      <trkpt lat="49.96585" lon="2.81084">
        <ele>48.68</ele>
        <time>2014-01-10T11:39:23Z</time>
      </trkpt>
      <trkpt lat="49.96591" lon="2.81024">
        <ele>56.41015625</ele>
        <time>2014-01-10T11:39:24Z</time>
      </trkpt>
      <trkpt lat="49.96611" lon="2.80943">
        <ele>42.92</ele>
        <time>2014-01-10T11:40:46Z</time>
      </trkpt>
      <trkpt lat="49.96652" lon="2.80844">
        <ele>41.47</ele>
        <time>2014-01-10T11:41:43Z</time>
      </trkpt>
      <trkpt lat="49.96668" lon="2.80801">
        <ele>41.95</ele>
        <time>2014-01-10T11:42:08Z</time>
      </trkpt>
      <trkpt lat="49.96697" lon="2.80722">
        <ele>40.99</ele>
        <time>2014-01-10T11:43:13Z</time>
      </trkpt>
      <trkpt lat="49.9674" lon="2.80587">
        <ele>42.92</ele>
        <time>2014-01-10T11:44:25Z</time>
      </trkpt>
      <trkpt lat="49.96743" lon="2.80583">
        <ele>42.44</ele>
        <time>2014-01-10T11:44:33Z</time>
      </trkpt>
      <trkpt lat="49.96743" lon="2.80568">
        <ele>41.95</ele>
        <time>2014-01-10T11:44:38Z</time>
      </trkpt>
      <trkpt lat="49.96746" lon="2.80546">
        <ele>49.33984375</ele>
        <time>2014-01-10T11:44:39Z</time>
      </trkpt>
      <trkpt lat="49.96749" lon="2.80493">
        <ele>40.51</ele>
        <time>2014-01-10T11:45:18Z</time>
      </trkpt>
      <trkpt lat="49.96748" lon="2.80384">
        <ele>40.03</ele>
        <time>2014-01-10T11:46:24Z</time>
      </trkpt>
      <trkpt lat="49.96747" lon="2.8038">
        <ele>40.03</ele>
        <time>2014-01-10T11:46:33Z</time>
      </trkpt>
      <trkpt lat="49.96747" lon="2.80377">
        <ele>37.15</ele>
        <time>2014-01-10T12:20:38Z</time>
      </trkpt>
      <trkpt lat="49.96747" lon="2.80377">
        <ele>37.63</ele>
        <time>2014-01-10T12:20:56Z</time>
      </trkpt>
      <trkpt lat="49.96747" lon="2.80377">
        <ele>37.15</ele>
        <time>2014-01-10T12:21:11Z</time>
      </trkpt>
      <trkpt lat="49.96753" lon="2.8038">
        <ele>37.15</ele>
        <time>2014-01-10T12:21:43Z</time>
      </trkpt>
      <trkpt lat="49.96759" lon="2.80384">
        <ele>37.63</ele>
        <time>2014-01-10T12:21:47Z</time>
      </trkpt>
      <trkpt lat="49.96762" lon="2.80386">
        <ele>37.63</ele>
        <time>2014-01-10T12:21:50Z</time>
      </trkpt>
      <trkpt lat="49.96774" lon="2.80394">
        <ele>40.03</ele>
        <time>2014-01-10T12:22:03Z</time>
      </trkpt>
      <trkpt lat="49.96784" lon="2.80395">
        <ele>40.99</ele>
        <time>2014-01-10T12:22:14Z</time>
      </trkpt>
      <trkpt lat="49.96817" lon="2.80393">
        <ele>45.32</ele>
        <time>2014-01-10T12:22:48Z</time>
      </trkpt>
      <trkpt lat="49.9682" lon="2.80384">
        <ele>44.84</ele>
        <time>2014-01-10T12:22:54Z</time>
      </trkpt>
      <trkpt lat="49.96828" lon="2.80309">
        <ele>47.72</ele>
        <time>2014-01-10T12:23:35Z</time>
      </trkpt>
      <trkpt lat="49.96829" lon="2.80271">
        <ele>48.68</ele>
        <time>2014-01-10T12:23:54Z</time>
      </trkpt>
      <trkpt lat="49.96828" lon="2.80249">
        <ele>49.65</ele>
        <time>2014-01-10T12:24:11Z</time>
      </trkpt>
      <trkpt lat="49.96827" lon="2.80197">
        <ele>50.13</ele>
        <time>2014-01-10T12:24:57Z</time>
      </trkpt>
      <trkpt lat="49.96825" lon="2.80151">
        <ele>51.57</ele>
        <time>2014-01-10T12:25:31Z</time>
      </trkpt>
      <trkpt lat="49.96826" lon="2.80123">
        <ele>51.09</ele>
        <time>2014-01-10T12:25:37Z</time>
      </trkpt>
      <trkpt lat="49.96833" lon="2.80087">
        <ele>50.13</ele>
        <time>2014-01-10T12:25:54Z</time>
      </trkpt>
      <trkpt lat="49.96841" lon="2.80049">
        <ele>48.68</ele>
        <time>2014-01-10T12:26:15Z</time>
      </trkpt>
      <trkpt lat="49.96847" lon="2.80018">
        <ele>46.76</ele>
        <time>2014-01-10T12:26:32Z</time>
      </trkpt>
      <trkpt lat="49.96857" lon="2.79965">
        <ele>44.36</ele>
        <time>2014-01-10T12:27:01Z</time>
      </trkpt>
      <trkpt lat="49.96858" lon="2.79947">
        <ele>46.76</ele>
        <time>2014-01-10T12:27:12Z</time>
      </trkpt>
      <trkpt lat="49.96862" lon="2.7989">
        <ele>46.28</ele>
        <time>2014-01-10T12:27:51Z</time>
      </trkpt>
      <trkpt lat="49.96862" lon="2.79837">
        <ele>67.984375</ele>
        <time>2014-01-10T12:27:52Z</time>
      </trkpt>
      <trkpt lat="49.96854" lon="2.79813">
        <ele>65.89453125</ele>
        <time>2014-01-10T12:27:53Z</time>
      </trkpt>
      <trkpt lat="49.96834" lon="2.79798">
        <ele>46.76</ele>
        <time>2014-01-10T12:29:17Z</time>
      </trkpt>
      <trkpt lat="49.96777" lon="2.79776">
        <ele>54.96875</ele>
        <time>2014-01-10T12:29:18Z</time>
      </trkpt>
      <trkpt lat="49.96721" lon="2.79758">
        <ele>50.13</ele>
        <time>2014-01-10T12:31:09Z</time>
      </trkpt>
      <trkpt lat="49.96702" lon="2.79726">
        <ele>49.16</ele>
        <time>2014-01-10T12:31:23Z</time>
      </trkpt>
      <trkpt lat="49.96614" lon="2.79579">
        <ele>38.11</ele>
        <time>2014-01-10T12:38:22Z</time>
      </trkpt>
      <trkpt lat="49.96626" lon="2.79576">
        <ele>42.92</ele>
        <time>2014-01-10T12:38:54Z</time>
      </trkpt>
      <trkpt lat="49.96628" lon="2.79572">
        <ele>46.28</ele>
        <time>2014-01-10T12:39:07Z</time>
      </trkpt>
      <trkpt lat="49.96629" lon="2.79574">
        <ele>46.28</ele>
        <time>2014-01-10T12:39:23Z</time>
      </trkpt>
      <trkpt lat="49.96629" lon="2.79576">
        <ele>46.28</ele>
        <time>2014-01-10T12:39:35Z</time>
      </trkpt>
      <trkpt lat="49.96631" lon="2.79576">
        <ele>48.68</ele>
        <time>2014-01-10T12:40:36Z</time>
      </trkpt>
      <trkpt lat="49.96631" lon="2.79577">
        <ele>50.13</ele>
        <time>2014-01-10T12:40:39Z</time>
      </trkpt>
      <trkpt lat="49.96635" lon="2.79579">
        <ele>51.57</ele>
        <time>2014-01-10T12:40:49Z</time>
      </trkpt>
      <trkpt lat="49.96647" lon="2.79582">
        <ele>55.89</ele>
        <time>2014-01-10T12:41:23Z</time>
      </trkpt>
      <trkpt lat="49.96651" lon="2.79578">
        <ele>58.3</ele>
        <time>2014-01-10T12:41:37Z</time>
      </trkpt>
      <trkpt lat="49.96654" lon="2.79565">
        <ele>60.7</ele>
        <time>2014-01-10T12:41:48Z</time>
      </trkpt>
      <trkpt lat="49.96651" lon="2.79537">
        <ele>63.1</ele>
        <time>2014-01-10T12:42:25Z</time>
      </trkpt>
      <trkpt lat="49.96643" lon="2.79518">
        <ele>64.07</ele>
        <time>2014-01-10T12:42:40Z</time>
      </trkpt>
      <trkpt lat="49.96632" lon="2.79496">
        <ele>65.99</ele>
        <time>2014-01-10T12:42:59Z</time>
      </trkpt>
      <trkpt lat="49.96618" lon="2.79471">
        <ele>69.83</ele>
        <time>2014-01-10T12:43:27Z</time>
      </trkpt>
      <trkpt lat="49.96609" lon="2.79459">
        <ele>70.79</ele>
        <time>2014-01-10T12:44:23Z</time>
      </trkpt>
      <trkpt lat="49.96596" lon="2.79442">
        <ele>72.72</ele>
        <time>2014-01-10T12:44:41Z</time>
      </trkpt>
      <trkpt lat="49.96584" lon="2.79423">
        <ele>73.68</ele>
        <time>2014-01-10T12:44:59Z</time>
      </trkpt>
      <trkpt lat="49.96575" lon="2.79404">
        <ele>75.12</ele>
        <time>2014-01-10T12:45:17Z</time>
      </trkpt>
      <trkpt lat="49.96572" lon="2.79399">
        <ele>76.08</ele>
        <time>2014-01-10T12:45:28Z</time>
      </trkpt>
      <trkpt lat="49.96572" lon="2.79399">
        <ele>78.48</ele>
        <time>2014-01-10T12:45:39Z</time>
      </trkpt>
      <trkpt lat="49.96572" lon="2.79399">
        <ele>74.64</ele>
        <time>2014-01-10T12:45:40Z</time>
      </trkpt>
      <trkpt lat="49.96572" lon="2.79399">
        <ele>78</ele>
        <time>2014-01-10T12:45:43Z</time>
      </trkpt>
      <trkpt lat="49.96572" lon="2.79399">
        <ele>74.16</ele>
        <time>2014-01-10T12:45:44Z</time>
      </trkpt>
      <trkpt lat="49.96572" lon="2.794">
        <ele>78.48</ele>
        <time>2014-01-10T12:45:52Z</time>
      </trkpt>
      <trkpt lat="49.96572" lon="2.794">
        <ele>73.68</ele>
        <time>2014-01-10T12:45:53Z</time>
      </trkpt>
      <trkpt lat="49.96572" lon="2.794">
        <ele>77.04</ele>
        <time>2014-01-10T12:45:56Z</time>
      </trkpt>
      <trkpt lat="49.96572" lon="2.794">
        <ele>78.48</ele>
        <time>2014-01-10T12:45:58Z</time>
      </trkpt>
      <trkpt lat="49.96572" lon="2.794">
        <ele>75.6</ele>
        <time>2014-01-10T12:45:59Z</time>
      </trkpt>
      <trkpt lat="49.96572" lon="2.794">
        <ele>70.31</ele>
        <time>2014-01-10T12:46:01Z</time>
      </trkpt>
      <trkpt lat="49.96572" lon="2.794">
        <ele>73.68</ele>
        <time>2014-01-10T12:46:02Z</time>
      </trkpt>
      <trkpt lat="49.96572" lon="2.794">
        <ele>79.45</ele>
        <time>2014-01-10T12:46:03Z</time>
      </trkpt>
      <trkpt lat="49.96572" lon="2.794">
        <ele>79.45</ele>
        <time>2014-01-10T12:46:04Z</time>
      </trkpt>
      <trkpt lat="49.96572" lon="2.794">
        <ele>68.39</ele>
        <time>2014-01-10T12:46:05Z</time>
      </trkpt>
      <trkpt lat="49.96572" lon="2.794">
        <ele>73.68</ele>
        <time>2014-01-10T12:46:06Z</time>
      </trkpt>
      <trkpt lat="49.96572" lon="2.794">
        <ele>79.93</ele>
        <time>2014-01-10T12:46:09Z</time>
      </trkpt>
      <trkpt lat="49.96572" lon="2.794">
        <ele>74.16</ele>
        <time>2014-01-10T12:46:10Z</time>
      </trkpt>
      <trkpt lat="49.96572" lon="2.794">
        <ele>78.97</ele>
        <time>2014-01-10T12:46:12Z</time>
      </trkpt>
      <trkpt lat="49.96572" lon="2.794">
        <ele>78</ele>
        <time>2014-01-10T12:46:13Z</time>
      </trkpt>
      <trkpt lat="49.96572" lon="2.794">
        <ele>74.16</ele>
        <time>2014-01-10T12:46:15Z</time>
      </trkpt>
      <trkpt lat="49.96572" lon="2.794">
        <ele>75.6</ele>
        <time>2014-01-10T12:46:38Z</time>
      </trkpt>
      <trkpt lat="49.96572" lon="2.79401">
        <ele>75.6</ele>
        <time>2014-01-10T12:46:52Z</time>
      </trkpt>
      <trkpt lat="49.96561" lon="2.79396">
        <ele>72.24</ele>
        <time>2014-01-10T12:47:55Z</time>
      </trkpt>
      <trkpt lat="49.96555" lon="2.79384">
        <ele>72.72</ele>
        <time>2014-01-10T12:48:06Z</time>
      </trkpt>
      <trkpt lat="49.96552" lon="2.79379">
        <ele>71.27</ele>
        <time>2014-01-10T12:48:16Z</time>
      </trkpt>
      <trkpt lat="49.96544" lon="2.79374">
        <ele>70.79</ele>
        <time>2014-01-10T12:48:28Z</time>
      </trkpt>
      <trkpt lat="49.96544" lon="2.79374">
        <ele>70.31</ele>
        <time>2014-01-10T12:48:33Z</time>
      </trkpt>
      <trkpt lat="49.96534" lon="2.79367">
        <ele>69.35</ele>
        <time>2014-01-10T12:48:45Z</time>
      </trkpt>
      <trkpt lat="49.9653" lon="2.7936">
        <ele>69.35</ele>
        <time>2014-01-10T12:48:50Z</time>
      </trkpt>
      <trkpt lat="49.96521" lon="2.79352">
        <ele>67.91</ele>
        <time>2014-01-10T12:49:05Z</time>
      </trkpt>
      <trkpt lat="49.96514" lon="2.79342">
        <ele>68.87</ele>
        <time>2014-01-10T12:49:14Z</time>
      </trkpt>
      <trkpt lat="49.96504" lon="2.79333">
        <ele>67.43</ele>
        <time>2014-01-10T12:49:26Z</time>
      </trkpt>
      <trkpt lat="49.96488" lon="2.79317">
        <ele>65.51</ele>
        <time>2014-01-10T12:49:45Z</time>
      </trkpt>
      <trkpt lat="49.96476" lon="2.79303">
        <ele>66.47</ele>
        <time>2014-01-10T12:50:01Z</time>
      </trkpt>
      <trkpt lat="49.96469" lon="2.79294">
        <ele>65.51</ele>
        <time>2014-01-10T12:50:12Z</time>
      </trkpt>
      <trkpt lat="49.96462" lon="2.79295">
        <ele>64.55</ele>
        <time>2014-01-10T12:50:28Z</time>
      </trkpt>
      <trkpt lat="49.96453" lon="2.79287">
        <ele>62.14</ele>
        <time>2014-01-10T12:50:42Z</time>
      </trkpt>
      <trkpt lat="49.96431" lon="2.79275">
        <ele>59.26</ele>
        <time>2014-01-10T12:51:07Z</time>
      </trkpt>
      <trkpt lat="49.96425" lon="2.79274">
        <ele>58.78</ele>
        <time>2014-01-10T12:51:13Z</time>
      </trkpt>
      <trkpt lat="49.96418" lon="2.79268">
        <ele>58.3</ele>
        <time>2014-01-10T12:51:21Z</time>
      </trkpt>
      <trkpt lat="49.9641" lon="2.79262">
        <ele>57.82</ele>
        <time>2014-01-10T12:51:28Z</time>
      </trkpt>
      <trkpt lat="49.9639" lon="2.79245">
        <ele>59.26</ele>
        <time>2014-01-10T12:51:52Z</time>
      </trkpt>
      <trkpt lat="49.96381" lon="2.79238">
        <ele>60.7</ele>
        <time>2014-01-10T12:52:04Z</time>
      </trkpt>
      <trkpt lat="49.96368" lon="2.79224">
        <ele>63.1</ele>
        <time>2014-01-10T12:52:18Z</time>
      </trkpt>
      <trkpt lat="49.9635" lon="2.79212">
        <ele>64.55</ele>
        <time>2014-01-10T12:52:38Z</time>
      </trkpt>
      <trkpt lat="49.96337" lon="2.79205">
        <ele>65.51</ele>
        <time>2014-01-10T12:52:54Z</time>
      </trkpt>
      <trkpt lat="49.96321" lon="2.792">
        <ele>63.58</ele>
        <time>2014-01-10T12:53:12Z</time>
      </trkpt>
      <trkpt lat="49.96318" lon="2.79201">
        <ele>63.1</ele>
        <time>2014-01-10T12:53:16Z</time>
      </trkpt>
      <trkpt lat="49.96307" lon="2.79198">
        <ele>62.62</ele>
        <time>2014-01-10T12:53:26Z</time>
      </trkpt>
      <trkpt lat="49.96301" lon="2.79192">
        <ele>61.66</ele>
        <time>2014-01-10T12:53:36Z</time>
      </trkpt>
      <trkpt lat="49.96301" lon="2.79192">
        <ele>62.14</ele>
        <time>2014-01-10T12:53:57Z</time>
      </trkpt>
      <trkpt lat="49.9629" lon="2.79187">
        <ele>62.14</ele>
        <time>2014-01-10T12:54:08Z</time>
      </trkpt>
      <trkpt lat="49.96273" lon="2.79181">
        <ele>62.62</ele>
        <time>2014-01-10T12:54:26Z</time>
      </trkpt>
      <trkpt lat="49.96253" lon="2.79167">
        <ele>63.58</ele>
        <time>2014-01-10T12:54:47Z</time>
      </trkpt>
      <trkpt lat="49.96249" lon="2.79164">
        <ele>63.58</ele>
        <time>2014-01-10T12:54:51Z</time>
      </trkpt>
      <trkpt lat="49.96235" lon="2.79164">
        <ele>61.18</ele>
        <time>2014-01-10T12:55:05Z</time>
      </trkpt>
      <trkpt lat="49.96232" lon="2.79165">
        <ele>59.74</ele>
        <time>2014-01-10T12:55:08Z</time>
      </trkpt>
      <trkpt lat="49.96224" lon="2.79165">
        <ele>59.26</ele>
        <time>2014-01-10T12:55:15Z</time>
      </trkpt>
      <trkpt lat="49.9622" lon="2.79161">
        <ele>59.74</ele>
        <time>2014-01-10T12:55:19Z</time>
      </trkpt>
      <trkpt lat="49.96218" lon="2.79162">
        <ele>60.22</ele>
        <time>2014-01-10T12:55:21Z</time>
      </trkpt>
      <trkpt lat="49.9621" lon="2.7916">
        <ele>62.14</ele>
        <time>2014-01-10T12:55:30Z</time>
      </trkpt>
      <trkpt lat="49.96199" lon="2.79153">
        <ele>65.03</ele>
        <time>2014-01-10T12:55:43Z</time>
      </trkpt>
      <trkpt lat="49.96198" lon="2.79155">
        <ele>65.51</ele>
        <time>2014-01-10T12:55:45Z</time>
      </trkpt>
      <trkpt lat="49.96187" lon="2.79156">
        <ele>65.03</ele>
        <time>2014-01-10T12:55:56Z</time>
      </trkpt>
      <trkpt lat="49.96177" lon="2.79152">
        <ele>65.03</ele>
        <time>2014-01-10T12:56:07Z</time>
      </trkpt>
      <trkpt lat="49.96174" lon="2.79149">
        <ele>65.99</ele>
        <time>2014-01-10T12:56:10Z</time>
      </trkpt>
      <trkpt lat="49.96167" lon="2.79147">
        <ele>66.47</ele>
        <time>2014-01-10T12:56:16Z</time>
      </trkpt>
      <trkpt lat="49.96165" lon="2.79145">
        <ele>67.91</ele>
        <time>2014-01-10T12:56:19Z</time>
      </trkpt>
      <trkpt lat="49.96156" lon="2.79134">
        <ele>72.24</ele>
        <time>2014-01-10T12:56:45Z</time>
      </trkpt>
      <trkpt lat="49.96156" lon="2.79134">
        <ele>72.24</ele>
        <time>2014-01-10T12:57:04Z</time>
      </trkpt>
      <trkpt lat="49.96153" lon="2.79134">
        <ele>72.72</ele>
        <time>2014-01-10T12:57:14Z</time>
      </trkpt>
      <trkpt lat="49.96153" lon="2.79134">
        <ele>72.72</ele>
        <time>2014-01-10T12:57:27Z</time>
      </trkpt>
      <trkpt lat="49.96148" lon="2.79127">
        <ele>73.68</ele>
        <time>2014-01-10T12:57:36Z</time>
      </trkpt>
      <trkpt lat="49.96144" lon="2.79125">
        <ele>74.64</ele>
        <time>2014-01-10T12:57:42Z</time>
      </trkpt>
      <trkpt lat="49.96138" lon="2.79118">
        <ele>77.04</ele>
        <time>2014-01-10T12:57:52Z</time>
      </trkpt>
      <trkpt lat="49.96137" lon="2.79118">
        <ele>78.48</ele>
        <time>2014-01-10T12:57:56Z</time>
      </trkpt>
      <trkpt lat="49.96119" lon="2.79113">
        <ele>79.45</ele>
        <time>2014-01-10T12:58:15Z</time>
      </trkpt>
      <trkpt lat="49.96119" lon="2.79107">
        <ele>80.89</ele>
        <time>2014-01-10T12:58:23Z</time>
      </trkpt>
      <trkpt lat="49.96119" lon="2.79104">
        <ele>82.81</ele>
        <time>2014-01-10T12:59:10Z</time>
      </trkpt>
      <trkpt lat="49.96117" lon="2.79108">
        <ele>81.37</ele>
        <time>2014-01-10T12:59:23Z</time>
      </trkpt>
      <trkpt lat="49.96117" lon="2.79108">
        <ele>80.89</ele>
        <time>2014-01-10T12:59:38Z</time>
      </trkpt>
      <trkpt lat="49.96117" lon="2.79108">
        <ele>81.37</ele>
        <time>2014-01-10T12:59:55Z</time>
      </trkpt>
      <trkpt lat="49.96117" lon="2.79108">
        <ele>81.37</ele>
        <time>2014-01-10T13:00:17Z</time>
      </trkpt>
      <trkpt lat="49.96117" lon="2.79108">
        <ele>81.37</ele>
        <time>2014-01-10T13:00:43Z</time>
      </trkpt>
      <trkpt lat="49.96117" lon="2.79108">
        <ele>81.37</ele>
        <time>2014-01-10T13:00:59Z</time>
      </trkpt>
      <trkpt lat="49.96104" lon="2.79108">
        <ele>80.41</ele>
        <time>2014-01-10T13:01:18Z</time>
      </trkpt>
      <trkpt lat="49.96098" lon="2.7911">
        <ele>78.48</ele>
        <time>2014-01-10T13:01:24Z</time>
      </trkpt>
      <trkpt lat="49.96093" lon="2.79113">
        <ele>78.48</ele>
        <time>2014-01-10T13:01:29Z</time>
      </trkpt>
      <trkpt lat="49.96092" lon="2.7911">
        <ele>78</ele>
        <time>2014-01-10T13:01:31Z</time>
      </trkpt>
      <trkpt lat="49.96081" lon="2.79106">
        <ele>76.56</ele>
        <time>2014-01-10T13:01:41Z</time>
      </trkpt>
      <trkpt lat="49.96063" lon="2.79099">
        <ele>78</ele>
        <time>2014-01-10T13:01:55Z</time>
      </trkpt>
      <trkpt lat="49.96053" lon="2.79097">
        <ele>76.56</ele>
        <time>2014-01-10T13:02:05Z</time>
      </trkpt>
      <trkpt lat="49.96043" lon="2.79086">
        <ele>80.89</ele>
        <time>2014-01-10T13:02:24Z</time>
      </trkpt>
      <trkpt lat="49.96035" lon="2.7908">
        <ele>82.81</ele>
        <time>2014-01-10T13:02:35Z</time>
      </trkpt>
      <trkpt lat="49.96031" lon="2.79072">
        <ele>84.73</ele>
        <time>2014-01-10T13:02:45Z</time>
      </trkpt>
      <trkpt lat="49.96006" lon="2.79057">
        <ele>90.02</ele>
        <time>2014-01-10T13:03:36Z</time>
      </trkpt>
      <trkpt lat="49.95986" lon="2.79056">
        <ele>88.58</ele>
        <time>2014-01-10T13:04:06Z</time>
      </trkpt>
      <trkpt lat="49.9597" lon="2.79054">
        <ele>88.1</ele>
        <time>2014-01-10T13:05:21Z</time>
      </trkpt>
      <trkpt lat="49.95967" lon="2.79056">
        <ele>88.1</ele>
        <time>2014-01-10T13:05:34Z</time>
      </trkpt>
      <trkpt lat="49.95962" lon="2.79051">
        <ele>87.14</ele>
        <time>2014-01-10T13:05:45Z</time>
      </trkpt>
      <trkpt lat="49.95955" lon="2.79052">
        <ele>87.14</ele>
        <time>2014-01-10T13:05:51Z</time>
      </trkpt>
      <trkpt lat="49.95942" lon="2.79046">
        <ele>87.62</ele>
        <time>2014-01-10T13:06:04Z</time>
      </trkpt>
      <trkpt lat="49.95934" lon="2.79046">
        <ele>86.66</ele>
        <time>2014-01-10T13:06:16Z</time>
      </trkpt>
      <trkpt lat="49.95927" lon="2.79041">
        <ele>87.62</ele>
        <time>2014-01-10T13:06:28Z</time>
      </trkpt>
      <trkpt lat="49.95924" lon="2.79042">
        <ele>87.62</ele>
        <time>2014-01-10T13:07:49Z</time>
      </trkpt>
      <trkpt lat="49.95912" lon="2.79039">
        <ele>87.14</ele>
        <time>2014-01-10T13:08:00Z</time>
      </trkpt>
      <trkpt lat="49.95906" lon="2.79035">
        <ele>85.21</ele>
        <time>2014-01-10T13:08:09Z</time>
      </trkpt>
      <trkpt lat="49.95875" lon="2.79058">
        <ele>78.48</ele>
        <time>2014-01-10T13:09:17Z</time>
      </trkpt>
      <trkpt lat="49.95862" lon="2.79055">
        <ele>75.6</ele>
        <time>2014-01-10T13:09:33Z</time>
      </trkpt>
      <trkpt lat="49.95857" lon="2.79056">
        <ele>73.68</ele>
        <time>2014-01-10T13:09:41Z</time>
      </trkpt>
      <trkpt lat="49.95856" lon="2.79059">
        <ele>72.24</ele>
        <time>2014-01-10T13:09:52Z</time>
      </trkpt>
      <trkpt lat="49.95847" lon="2.79068">
        <ele>69.35</ele>
        <time>2014-01-10T13:10:09Z</time>
      </trkpt>
      <trkpt lat="49.95833" lon="2.79077">
        <ele>68.87</ele>
        <time>2014-01-10T13:10:21Z</time>
      </trkpt>
      <trkpt lat="49.95811" lon="2.79088">
        <ele>65.51</ele>
        <time>2014-01-10T13:10:39Z</time>
      </trkpt>
      <trkpt lat="49.95791" lon="2.79102">
        <ele>64.07</ele>
        <time>2014-01-10T13:10:55Z</time>
      </trkpt>
      <trkpt lat="49.95782" lon="2.79104">
        <ele>63.1</ele>
        <time>2014-01-10T13:11:03Z</time>
      </trkpt>
      <trkpt lat="49.95771" lon="2.79108">
        <ele>61.18</ele>
        <time>2014-01-10T13:11:14Z</time>
      </trkpt>
      <trkpt lat="49.95757" lon="2.7911">
        <ele>56.37</ele>
        <time>2014-01-10T13:11:37Z</time>
      </trkpt>
      <trkpt lat="49.95743" lon="2.79113">
        <ele>53.97</ele>
        <time>2014-01-10T13:11:48Z</time>
      </trkpt>
      <trkpt lat="49.95724" lon="2.79131">
        <ele>50.13</ele>
        <time>2014-01-10T13:12:08Z</time>
      </trkpt>
      <trkpt lat="49.95711" lon="2.7914">
        <ele>48.2</ele>
        <time>2014-01-10T13:12:16Z</time>
      </trkpt>
      <trkpt lat="49.95691" lon="2.79151">
        <ele>43.88</ele>
        <time>2014-01-10T13:12:37Z</time>
      </trkpt>
      <trkpt lat="49.9568" lon="2.79154">
        <ele>41.95</ele>
        <time>2014-01-10T13:12:50Z</time>
      </trkpt>
      <trkpt lat="49.95669" lon="2.79163">
        <ele>37.63</ele>
        <time>2014-01-10T13:13:44Z</time>
      </trkpt>
      <trkpt lat="49.95662" lon="2.7917">
        <ele>37.15</ele>
        <time>2014-01-10T13:14:10Z</time>
      </trkpt>
      <trkpt lat="49.95696" lon="2.79164">
        <ele>48.9609375</ele>
        <time>2014-01-10T13:14:11Z</time>
      </trkpt>
      <trkpt lat="49.95748" lon="2.79166">
        <ele>38.11</ele>
        <time>2014-01-10T13:20:13Z</time>
      </trkpt>
      <trkpt lat="49.95767" lon="2.79165">
        <ele>36.67</ele>
        <time>2014-01-10T13:20:30Z</time>
      </trkpt>
      <trkpt lat="49.95805" lon="2.79145">
        <ele>51.45703125</ele>
        <time>2014-01-10T13:20:31Z</time>
      </trkpt>
      <trkpt lat="49.95846" lon="2.79153">
        <ele>33.3</ele>
        <time>2014-01-10T13:21:32Z</time>
      </trkpt>
      <trkpt lat="49.95886" lon="2.79157">
        <ele>33.3</ele>
        <time>2014-01-10T13:22:05Z</time>
      </trkpt>
      <trkpt lat="49.95914" lon="2.79167">
        <ele>32.82</ele>
        <time>2014-01-10T13:22:58Z</time>
      </trkpt>
      <trkpt lat="49.95941" lon="2.79169">
        <ele>49.4453125</ele>
        <time>2014-01-10T13:22:59Z</time>
      </trkpt>
      <trkpt lat="49.95961" lon="2.79175">
        <ele>32.34</ele>
        <time>2014-01-10T13:23:12Z</time>
      </trkpt>
      <trkpt lat="49.96023" lon="2.79186">
        <ele>31.86</ele>
        <time>2014-01-10T13:24:07Z</time>
      </trkpt>
      <trkpt lat="49.96042" lon="2.79188">
        <ele>32.82</ele>
        <time>2014-01-10T13:24:24Z</time>
      </trkpt>
      <trkpt lat="49.96145" lon="2.79203">
        <ele>58.48828125</ele>
        <time>2014-01-10T13:24:25Z</time>
      </trkpt>
      <trkpt lat="49.96234" lon="2.79222">
        <ele>34.26</ele>
        <time>2014-01-10T13:27:10Z</time>
      </trkpt>
      <trkpt lat="49.96317" lon="2.79261">
        <ele>34.26</ele>
        <time>2014-01-10T13:28:20Z</time>
      </trkpt>
      <trkpt lat="49.96346" lon="2.79275">
        <ele>33.3</ele>
        <time>2014-01-10T13:28:43Z</time>
      </trkpt>
      <trkpt lat="49.96406" lon="2.79313">
        <ele>34.26</ele>
        <time>2014-01-10T13:29:37Z</time>
      </trkpt>
      <trkpt lat="49.96454" lon="2.79356">
        <ele>34.26</ele>
        <time>2014-01-10T13:30:27Z</time>
      </trkpt>
      <trkpt lat="49.96514" lon="2.79431">
        <ele>34.74</ele>
        <time>2014-01-10T13:31:21Z</time>
      </trkpt>
      <trkpt lat="49.96549" lon="2.79484">
        <ele>35.23</ele>
        <time>2014-01-10T13:32:01Z</time>
      </trkpt>
      <trkpt lat="49.96573" lon="2.79519">
        <ele>35.71</ele>
        <time>2014-01-10T13:32:26Z</time>
      </trkpt>
      <trkpt lat="49.96617" lon="2.79588">
        <ele>39.07</ele>
        <time>2014-01-10T13:33:29Z</time>
      </trkpt>
      <trkpt lat="49.967" lon="2.79726">
        <ele>47.72</ele>
        <time>2014-01-10T13:35:31Z</time>
      </trkpt>
      <trkpt lat="49.9672" lon="2.79758">
        <ele>49.65</ele>
        <time>2014-01-10T13:35:59Z</time>
      </trkpt>
      <trkpt lat="49.96731" lon="2.79763">
        <ele>49.16</ele>
        <time>2014-01-10T13:36:09Z</time>
      </trkpt>
      <trkpt lat="49.96753" lon="2.7977">
        <ele>48.2</ele>
        <time>2014-01-10T13:36:28Z</time>
      </trkpt>
      <trkpt lat="49.96833" lon="2.798">
        <ele>45.32</ele>
        <time>2014-01-10T13:37:30Z</time>
      </trkpt>
      <trkpt lat="49.96853" lon="2.79813">
        <ele>44.84</ele>
        <time>2014-01-10T13:38:18Z</time>
      </trkpt>
      <trkpt lat="49.96861" lon="2.79845">
        <ele>44.84</ele>
        <time>2014-01-10T13:38:39Z</time>
      </trkpt>
      <trkpt lat="49.96861" lon="2.79883">
        <ele>44.36</ele>
        <time>2014-01-10T13:38:53Z</time>
      </trkpt>
      <trkpt lat="49.96858" lon="2.79931">
        <ele>44.36</ele>
        <time>2014-01-10T13:39:17Z</time>
      </trkpt>
      <trkpt lat="49.96855" lon="2.79963">
        <ele>67.87109375</ele>
        <time>2014-01-10T13:39:18Z</time>
      </trkpt>
      <trkpt lat="49.96842" lon="2.80039">
        <ele>45.32</ele>
        <time>2014-01-10T13:40:12Z</time>
      </trkpt>
      <trkpt lat="49.96825" lon="2.80123">
        <ele>49.16</ele>
        <time>2014-01-10T13:41:00Z</time>
      </trkpt>
      <trkpt lat="49.96827" lon="2.8029">
        <ele>45.8</ele>
        <time>2014-01-10T13:42:42Z</time>
      </trkpt>
      <trkpt lat="49.96819" lon="2.80394">
        <ele>43.88</ele>
        <time>2014-01-10T13:43:39Z</time>
      </trkpt>
      <trkpt lat="49.96771" lon="2.80398">
        <ele>37.63</ele>
        <time>2014-01-10T13:44:19Z</time>
      </trkpt>
      <trkpt lat="49.96748" lon="2.80381">
        <ele>35.71</ele>
        <time>2014-01-10T13:44:38Z</time>
      </trkpt>
      <trkpt lat="49.96705" lon="2.80353">
        <ele>35.71</ele>
        <time>2014-01-10T13:45:20Z</time>
      </trkpt>
      <trkpt lat="49.96691" lon="2.80352">
        <ele>35.23</ele>
        <time>2014-01-10T13:45:23Z</time>
      </trkpt>
      <trkpt lat="49.96685" lon="2.80359">
        <ele>43.796875</ele>
        <time>2014-01-10T13:45:24Z</time>
      </trkpt>
      <trkpt lat="49.9668" lon="2.8036">
        <ele>43.5234375</ele>
        <time>2014-01-10T13:45:25Z</time>
      </trkpt>
      <trkpt lat="49.9664" lon="2.80402">
        <ele>34.26</ele>
        <time>2014-01-10T13:46:15Z</time>
      </trkpt>
      <trkpt lat="49.96597" lon="2.80439">
        <ele>33.78</ele>
        <time>2014-01-10T13:47:11Z</time>
      </trkpt>
      <trkpt lat="49.96575" lon="2.80454">
        <ele>33.78</ele>
        <time>2014-01-10T13:47:18Z</time>
      </trkpt>
      <trkpt lat="49.96533" lon="2.80495">
        <ele>33.3</ele>
        <time>2014-01-10T13:47:56Z</time>
      </trkpt>
      <trkpt lat="49.96513" lon="2.80513">
        <ele>33.3</ele>
        <time>2014-01-10T13:48:19Z</time>
      </trkpt>
      <trkpt lat="49.96471" lon="2.80537">
        <ele>32.34</ele>
        <time>2014-01-10T13:49:43Z</time>
      </trkpt>
      <trkpt lat="49.96434" lon="2.80576">
        <ele>32.34</ele>
        <time>2014-01-10T13:50:34Z</time>
      </trkpt>
      <trkpt lat="49.96397" lon="2.80631">
        <ele>33.3</ele>
        <time>2014-01-10T13:51:16Z</time>
      </trkpt>
      <trkpt lat="49.96374" lon="2.80651">
        <ele>32.82</ele>
        <time>2014-01-10T13:52:10Z</time>
      </trkpt>
      <trkpt lat="49.96353" lon="2.80693">
        <ele>32.82</ele>
        <time>2014-01-10T13:52:44Z</time>
      </trkpt>
      <trkpt lat="49.96335" lon="2.80717">
        <ele>32.34</ele>
        <time>2014-01-10T13:53:05Z</time>
      </trkpt>
      <trkpt lat="49.96289" lon="2.80736">
        <ele>32.82</ele>
        <time>2014-01-10T13:54:00Z</time>
      </trkpt>
      <trkpt lat="49.96248" lon="2.80757">
        <ele>32.82</ele>
        <time>2014-01-10T13:54:43Z</time>
      </trkpt>
      <trkpt lat="49.96198" lon="2.8079">
        <ele>45</ele>
        <time>2014-01-10T13:54:44Z</time>
      </trkpt>
      <trkpt lat="49.96184" lon="2.80814">
        <ele>45</ele>
        <time>2014-01-10T13:54:45Z</time>
      </trkpt>
      <trkpt lat="49.96177" lon="2.80846">
        <ele>31.86</ele>
        <time>2014-01-10T13:56:35Z</time>
      </trkpt>
      <trkpt lat="49.96124" lon="2.8084">
        <ele>33.3</ele>
        <time>2014-01-10T13:57:19Z</time>
      </trkpt>
      <trkpt lat="49.96106" lon="2.80843">
        <ele>33.78</ele>
        <time>2014-01-10T13:57:37Z</time>
      </trkpt>
      <trkpt lat="49.95951" lon="2.80862">
        <ele>32.34</ele>
        <time>2014-01-10T14:04:05Z</time>
      </trkpt>
      <trkpt lat="49.95826" lon="2.80871">
        <ele>48</ele>
        <time>2014-01-10T14:04:06Z</time>
      </trkpt>
      <trkpt lat="49.95733" lon="2.80899">
        <ele>49.6796875</ele>
        <time>2014-01-10T14:04:07Z</time>
      </trkpt>
      <trkpt lat="49.95544" lon="2.80983">
        <ele>41.95</ele>
        <time>2014-01-10T14:37:31Z</time>
      </trkpt>
      <trkpt lat="49.95289" lon="2.8107">
        <ele>41.95</ele>
        <time>2014-01-10T14:41:38Z</time>
      </trkpt>
      <trkpt lat="49.95142" lon="2.81068">
        <ele>42.92</ele>
        <time>2014-01-10T14:42:44Z</time>
      </trkpt>
      <trkpt lat="49.95063" lon="2.81107">
        <ele>40.51</ele>
        <time>2014-01-10T14:44:59Z</time>
      </trkpt>
      <trkpt lat="49.9491" lon="2.81219">
        <ele>37.15</ele>
        <time>2014-01-10T14:46:51Z</time>
      </trkpt>
      <trkpt lat="49.9485" lon="2.81246">
        <ele>36.67</ele>
        <time>2014-01-10T14:47:27Z</time>
      </trkpt>
      <trkpt lat="49.94738" lon="2.81261">
        <ele>34.74</ele>
        <time>2014-01-10T14:48:57Z</time>
      </trkpt>
      <trkpt lat="49.94589" lon="2.81474">
        <ele>34.74</ele>
        <time>2014-01-10T14:52:38Z</time>
      </trkpt>
      <trkpt lat="49.94525" lon="2.81582">
        <ele>34.74</ele>
        <time>2014-01-10T14:52:42Z</time>
      </trkpt>
      <trkpt lat="49.94505" lon="2.81642">
        <ele>32.82</ele>
        <time>2014-01-10T14:54:41Z</time>
      </trkpt>
      <trkpt lat="49.94478" lon="2.81683">
        <ele>33.78</ele>
        <time>2014-01-10T14:55:29Z</time>
      </trkpt>
      <trkpt lat="49.94345" lon="2.81811">
        <ele>36.19</ele>
        <time>2014-01-10T14:57:20Z</time>
      </trkpt>
      <trkpt lat="49.94364" lon="2.81873">
        <ele>35.71</ele>
        <time>2014-01-10T14:58:11Z</time>
      </trkpt>
      <trkpt lat="49.94396" lon="2.81963">
        <ele>37.15</ele>
        <time>2014-01-10T14:59:13Z</time>
      </trkpt>
      <trkpt lat="49.94406" lon="2.81985">
        <ele>37.15</ele>
        <time>2014-01-10T14:59:24Z</time>
      </trkpt>
      <trkpt lat="49.94433" lon="2.82056">
        <ele>37.15</ele>
        <time>2014-01-10T15:00:19Z</time>
      </trkpt>
      <trkpt lat="49.94509" lon="2.82242">
        <ele>36.19</ele>
        <time>2014-01-10T15:02:33Z</time>
      </trkpt>
      <trkpt lat="49.94547" lon="2.82403">
        <ele>35.23</ele>
        <time>2014-01-10T15:05:53Z</time>
      </trkpt>
      <trkpt lat="49.94551" lon="2.8248">
        <ele>35.71</ele>
        <time>2014-01-10T15:06:34Z</time>
      </trkpt>
      <trkpt lat="49.94553" lon="2.8262">
        <ele>34.74</ele>
        <time>2014-01-10T15:07:49Z</time>
      </trkpt>
      <trkpt lat="49.94555" lon="2.82776">
        <ele>34.26</ele>
        <time>2014-01-10T15:09:32Z</time>
      </trkpt>
      <trkpt lat="49.9456" lon="2.82921">
        <ele>34.26</ele>
        <time>2014-01-10T15:10:51Z</time>
      </trkpt>
      <trkpt lat="49.94562" lon="2.83073">
        <ele>34.74</ele>
        <time>2014-01-10T15:12:24Z</time>
      </trkpt>
      <trkpt lat="49.94567" lon="2.83339">
        <ele>33.3</ele>
        <time>2014-01-10T15:14:52Z</time>
      </trkpt>
      <trkpt lat="49.94564" lon="2.83428">
        <ele>32.82</ele>
        <time>2014-01-10T15:15:39Z</time>
      </trkpt>
      <trkpt lat="49.94574" lon="2.8349">
        <ele>32.82</ele>
        <time>2014-01-10T15:16:12Z</time>
      </trkpt>
      <trkpt lat="49.94596" lon="2.83546">
        <ele>33.3</ele>
        <time>2014-01-10T15:16:46Z</time>
      </trkpt>
      <trkpt lat="49.94618" lon="2.83598">
        <ele>32.82</ele>
        <time>2014-01-10T15:17:29Z</time>
      </trkpt>
      <trkpt lat="49.94712" lon="2.8376">
        <ele>33.3</ele>
        <time>2014-01-10T15:19:21Z</time>
      </trkpt>
      <trkpt lat="49.94808" lon="2.83924">
        <ele>33.3</ele>
        <time>2014-01-10T15:21:48Z</time>
      </trkpt>
      <trkpt lat="49.94822" lon="2.83948">
        <ele>33.3</ele>
        <time>2014-01-10T15:22:09Z</time>
      </trkpt>
      <trkpt lat="49.94918" lon="2.84108">
        <ele>32.82</ele>
        <time>2014-01-10T15:24:17Z</time>
      </trkpt>
      <trkpt lat="49.94945" lon="2.84232">
        <ele>33.78</ele>
        <time>2014-01-10T15:25:34Z</time>
      </trkpt>
      <trkpt lat="49.94951" lon="2.84322">
        <ele>33.3</ele>
        <time>2014-01-10T15:27:12Z</time>
      </trkpt>
      <trkpt lat="49.94957" lon="2.84384">
        <ele>33.78</ele>
        <time>2014-01-10T15:27:45Z</time>
      </trkpt>
      <trkpt lat="49.94967" lon="2.84544">
        <ele>32.34</ele>
        <time>2014-01-10T15:29:13Z</time>
      </trkpt>
      <trkpt lat="49.94977" lon="2.84681">
        <ele>32.82</ele>
        <time>2014-01-10T15:30:26Z</time>
      </trkpt>
      <trkpt lat="49.94983" lon="2.84769">
        <ele>32.34</ele>
        <time>2014-01-10T15:31:43Z</time>
      </trkpt>
      <trkpt lat="49.94985" lon="2.84772">
        <ele>33.78</ele>
        <time>2014-01-10T15:32:18Z</time>
      </trkpt>
      <trkpt lat="49.94985" lon="2.84772">
        <ele>21.29</ele>
        <time>2014-01-10T15:32:19Z</time>
      </trkpt>
      <trkpt lat="49.94985" lon="2.84772">
        <ele>41.95</ele>
        <time>2014-01-10T15:32:20Z</time>
      </trkpt>
      <trkpt lat="49.94985" lon="2.84772">
        <ele>28.5</ele>
        <time>2014-01-10T15:32:21Z</time>
      </trkpt>
      <trkpt lat="49.94985" lon="2.84772">
        <ele>32.82</ele>
        <time>2014-01-10T15:32:23Z</time>
      </trkpt>
    </trkseg>
  </trk>
</gpx>